LTAG/ADF METAR and TAF weather

Enter ICAO airport designator
Station Type Date Time Source
LTAG METAR 2019/08/25 02:20 UTC NOAA

LTAG 250220Z 33007KT CAVOK 23/20 Q1008 NOSIG


Station Type Date Time Source
LTAG Decoded METAR 2019/08/25 02:20 UTC NOAA

Station name not available
Aug 24, 2019 - 10:20 PM EDT / 2019.08.25 0220 UTC
Wind: from the NNW (330 degrees) at 8 MPH (7 KT):0
Visibility: greater than 7 mile(s):0
Temperature: 73 F (23 C)
Dew Point: 68 F (20 C)
Relative Humidity: 83%
Pressure (altimeter): 29.77 in. Hg (1008 hPa)
ob: LTAG 250220Z 33007KT CAVOK 23/20 Q1008 NOSIG
cycle: 2

Station Type Date Time Source
LTAG TAF 2019/08/24 18:03 UTC NOAA

TAF TAF LTAG 241640Z 2418/2518 VRB02KT CAVOK
BECMG 2423/2501 FEW025
BECMG 2505/2506 CAVOK
TEMPO 2513/2516 19012KT

Example: see airport list